Estación meteorológica de Montseny - Vallcàrquera (Vallès Oriental, Parc Natural del Montseny)

Consulta los datos en tiempo real de la estación meteorológica de Montseny - Vallcàrquera





Hora UTC 19:35
Temperatura 20.8 ºC
Humedad 78.1 %
Pluja 0.0 mm
Velocidad viento 2.3 km/h
Dirección viento ENE
Radiación solar 0.0 W/m²

Datos diarios 2026-09-01



Hora UTC (invierno +1h; verano +2h)
Temperatura (ºC) Humedad (%) Velocidad viento (km/h) Precipitación (mm) Radiación solar (W/m²)
Hora UTC Aire Humedad Vel. Dir. Vel. Max Dir. Intent. máx 5 min. Rad. Sol.
00:05 18.8 88.9 2.6 ENE 2.6 NE 0.0 0.0
00:10 18.9 88.5 1.2 N 3.2 NNE 0.0 0.0
00:15 18.8 88.6 2.6 E 5.3 ENE 0.0 0.0
00:20 18.9 88.6 2.9 ENE 4.6 ENE 0.0 0.0
00:25 18.9 88.0 2.4 NE 4.2 ENE 0.0 0.0
00:30 18.9 88.0 0.7 NNE 2.8 NE 0.0 0.0
00:35 18.9 88.6 1.2 ENE 2.8 E 0.0 0.0
00:40 18.9 88.7 1.7 NE 3.5 ENE 0.0 0.0
00:45 19.0 88.3 1.5 ENE 3.9 ENE 0.0 0.5
00:50 19.1 87.6 1.8 ENE 3.9 ENE 0.0 0.4
00:55 19.3 87.0 2.0 ENE 4.2 ENE 0.0 0.6
01:00 19.4 86.0 2.4 ENE 3.5 ENE 0.0 0.7
01:05 19.6 85.3 2.4 NE 4.2 ENE 0.0 0.6
01:10 19.8 84.8 2.6 NE 4.6 NE 0.0 0.6
01:15 19.9 84.5 1.3 NE 2.8 ENE 0.0 0.5
01:20 20.1 83.9 2.1 NE 4.2 NE 0.0 0.6
01:25 20.3 83.3 1.4 NE 2.8 NE 0.0 0.4
01:30 20.3 83.3 3.1 ENE 4.9 E 0.0 0.2
01:35 20.3 83.3 3.4 ENE 5.3 E 0.0 0.1
01:40 20.4 83.2 2.5 ENE 4.9 E 0.0 0.1
01:45 20.5 83.3 1.2 ENE 3.9 NE 0.0 0.1
01:50 20.6 83.2 0.3 S 2.5 S 0.0 0.0
01:55 20.4 83.5 0.3 WSW 2.5 WSW 0.0 0.0
02:00 20.3 84.0 0.0 NNE 0.0 ENE 0.0 0.0
02:05 20.2 84.7 0.0 ENE 0.7 ENE 0.0 0.0
02:10 20.1 85.0 0.1 E 1.4 E 0.0 0.0
02:15 20.1 85.3 1.9 E 3.9 ENE 0.0 0.0
02:20 20.3 85.0 2.5 ENE 4.2 ENE 0.0 0.3
02:25 20.5 84.7 2.3 ENE 3.9 NE 0.0 0.4
02:30 20.6 84.6 1.4 ENE 3.2 E 0.0 0.1
02:35 20.7 84.9 0.4 NE 2.1 ENE 0.0 0.1
02:40 20.8 85.0 0.1 NNW 1.1 NW 0.0 0.0
02:45 20.8 85.0 0.0 NNE 0.0 NE 0.0 0.0
02:50 20.8 85.2 0.2 NE 1.4 NE 0.0 0.0
02:55 20.8 85.3 1.0 NE 2.1 E 0.0 0.0
03:00 20.7 85.5 1.1 NE 3.5 NE 0.0 0.0
03:05 20.5 85.7 0.6 NE 2.5 NE 0.0 0.0
03:10 20.3 86.7 0.9 NNE 2.5 NNE 0.0 0.0
03:15 20.2 86.8 0.8 NNE 3.5 ENE 0.0 0.0
03:20 19.9 87.2 0.9 NE 2.1 NW 0.0 0.0
03:25 19.6 87.7 0.8 NNW 2.5 N 0.0 0.0
03:30 19.4 88.6 0.5 N 1.8 N 0.0 0.0
03:35 19.3 88.7 0.0 NW 1.1 WNW 0.0 0.0
03:40 19.1 89.1 1.0 NE 2.8 ENE 0.0 0.0
03:45 19.0 89.2 1.4 NNE 2.8 NNE 0.0 0.0
03:50 19.0 89.0 1.5 ENE 3.5 NNE 0.0 0.0
03:55 18.9 88.6 0.0 NE 0.4 NE 0.0 0.0
04:00 18.7 89.2 0.1 NNE 1.1 ENE 0.0 0.0
04:05 18.5 89.6 0.3 N 2.1 N 0.0 0.0
04:10 18.5 90.4 0.7 N 2.8 NNW 0.0 0.0
04:15 18.4 90.5 0.8 N 2.1 N 0.0 0.0
04:20 18.4 90.8 1.1 NNE 2.5 NE 0.0 0.0
04:25 18.4 90.6 1.4 NE 3.5 NE 0.0 0.0
04:30 18.4 90.1 1.8 NE 3.9 ENE 0.0 0.0
04:35 18.4 90.1 1.3 ENE 2.5 ENE 0.0 0.0
04:40 18.3 90.3 1.1 E 2.1 E 0.0 0.0
04:45 18.3 90.5 3.2 ENE 6.0 E 0.0 0.0
04:50 18.5 89.4 2.3 NE 3.9 NE 0.0 0.0
04:55 18.6 89.0 1.6 NE 4.2 ENE 0.0 0.0
05:00 18.5 89.3 1.1 ENE 2.5 ENE 0.0 0.0
05:05 18.4 90.0 2.7 ENE 4.6 NNE 0.0 0.0
05:10 18.5 89.6 1.6 ENE 3.5 NE 0.0 0.2
05:15 18.5 89.7 2.7 NE 5.3 ENE 0.0 0.9
05:20 18.5 89.3 0.7 N 2.1 NE 0.0 2.2
05:25 18.4 89.8 0.5 ENE 2.1 ENE 0.0 4.0
05:30 18.3 90.5 1.0 NNE 2.1 NE 0.0 7.1
05:35 18.3 90.6 0.5 NNE 1.8 N 0.0 10.4
05:40 18.3 90.9 1.4 NNE 3.5 ENE 0.0 14.8
05:45 18.4 90.4 0.2 NE 1.4 ENE 0.0 18.7
05:50 18.3 90.3 0.0 N 0.7 N 0.0 22.4
05:55 18.3 90.8 0.7 NE 2.5 NE 0.0 25.4
06:00 18.4 90.5 0.9 NNE 2.5 NE 0.0 27.6
06:05 18.4 90.3 0.6 NE 1.8 ENE 0.0 29.8
06:10 18.5 90.0 0.3 NNE 1.4 N 0.0 33.0
06:15 18.5 90.1 0.7 NE 2.5 ENE 0.0 35.7
06:20 18.5 90.0 1.8 ENE 3.2 NE 0.0 38.5
06:25 18.6 89.7 0.6 NNE 1.8 NNE 0.0 41.3
06:30 18.6 89.7 0.6 NE 2.5 ENE 0.0 70.7
06:35 19.1 87.7 2.1 ENE 4.2 ENE 0.0 162.3
06:40 19.9 84.2 1.8 E 3.5 ESE 0.0 175.7
06:45 20.2 82.6 2.9 ENE 4.9 E 0.0 190.7
06:50 20.3 82.2 3.0 E 5.3 ENE 0.0 208.1
06:55 20.8 80.1 1.6 ENE 4.6 ENE 0.0 225.2
07:00 21.4 77.7 2.1 E 3.9 E 0.0 227.4
07:05 21.7 77.1 1.2 SSE 2.5 E 0.0 258.8
07:10 22.1 75.6 1.6 E 3.9 ENE 0.0 272.7
07:15 22.6 73.6 1.3 E 2.8 ENE 0.0 289.4
07:20 23.2 71.6 1.5 E 3.2 ENE 0.0 308.4
07:25 23.5 70.6 1.9 E 3.5 ESE 0.0 324.0
07:30 23.7 69.7 2.0 E 3.9 E 0.0 341.0
07:35 24.1 68.5 1.2 E 4.2 E 0.0 356.7
07:40 24.4 67.2 2.3 ESE 6.4 ESE 0.0 374.7
07:45 24.3 67.5 2.0 E 4.9 E 0.0 392.0
07:50 24.9 65.4 1.4 SSE 3.9 E 0.0 406.3
07:55 25.1 63.8 2.8 SSW 8.5 S 0.0 423.9
08:00 24.9 63.8 3.9 SSW 9.2 S 0.0 441.0
08:05 25.1 63.0 3.6 SSW 9.9 SW 0.0 457.4
08:10 25.3 62.3 3.1 SW 6.7 SSW 0.0 469.9
08:15 25.5 61.1 2.7 SW 9.9 SW 0.0 483.7
08:20 25.6 60.9 4.0 SSW 9.2 SSW 0.0 501.3
08:25 25.9 59.6 3.0 SSW 10.2 SSW 0.0 515.8
08:30 26.1 58.8 2.4 SW 5.3 S 0.0 526.1
08:35 26.4 57.7 3.7 SSW 10.9 S 0.0 541.4
08:40 26.3 57.8 2.9 SW 7.4 SSW 0.0 554.8
08:45 26.4 57.3 3.6 SSW 7.1 SSW 0.0 566.2
08:50 26.6 56.8 4.1 SSW 13.1 SSW 0.0 580.8
08:55 26.7 56.2 3.1 SSW 9.2 SW 0.0 588.2
09:00 27.0 55.4 2.0 S 5.3 S 0.0 602.2
09:05 27.4 54.1 3.4 SSW 9.9 S 0.0 615.8
09:10 27.6 53.5 2.6 SW 8.1 SW 0.0 627.8
09:15 28.1 52.1 3.8 SSW 9.5 SSE 0.0 640.7
09:20 28.4 50.8 4.0 S 18.0 S 0.0 650.9
09:25 27.8 52.1 2.9 SSE 6.7 ESE 0.0 656.7
09:30 27.6 52.6 4.2 SSE 13.4 ENE 0.0 667.5
09:35 27.3 52.8 4.1 ENE 10.2 NNE 0.0 682.6
09:40 28.0 51.7 2.2 SE 6.0 SE 0.0 694.7
09:45 28.1 50.7 2.7 WSW 15.2 SSW 0.0 703.1
09:50 28.2 50.8 3.5 SSW 9.9 SW 0.0 728.0
09:55 28.2 50.5 4.6 SSE 15.5 SSE 0.0 733.4
10:00 28.2 50.4 3.7 SW 10.2 W 0.0 757.6
10:05 28.4 49.5 3.3 WNW 8.8 NW 0.0 744.4
10:10 28.5 49.4 3.3 W 9.5 SW 0.0 760.9
10:15 28.6 48.8 4.0 SSW 10.9 WNW 0.0 759.5
10:20 28.5 48.7 3.2 SE 9.2 ESE 0.0 789.3
10:25 28.4 48.6 4.5 WNW 10.2 W 0.0 743.6
10:30 28.5 48.2 4.5 SE 13.4 SSE 0.0 792.3
10:35 28.3 48.7 4.3 ESE 14.1 ESE 0.0 806.0
10:40 29.0 46.8 3.6 ESE 14.5 E 0.0 811.0
10:45 28.8 47.3 4.4 SSW 10.2 SW 0.0 829.0
10:50 28.8 47.1 4.9 SSW 15.5 SSW 0.0 824.0
11:00 28.3 47.1 5.3 ENE 13.8 E 0.0 829.0
11:05 28.6 46.2 3.6 SSE 16.6 S 0.0 844.0
11:10 28.3 46.6 6.3 NNE 18.4 WSW 0.0 844.0
11:15 28.3 47.0 5.2 W 17.6 ENE 0.0 850.0
11:20 28.8 45.8 5.4 ESE 13.8 SE 0.0 863.0
11:25 29.0 45.5 3.8 SSE 16.6 E 0.0 667.7
11:30 28.3 48.4 5.6 ESE 15.2 E 0.0 874.0
11:35 28.2 49.0 6.8 WSW 15.9 W 0.0 894.0
11:40 28.2 49.1 4.1 NW 12.4 SW 0.0 710.6
11:45 28.2 49.3 4.5 N 15.2 WSW 0.0 627.9
11:50 28.2 49.5 4.1 ESE 10.9 ENE 0.0 831.0
11:55 28.5 48.6 4.0 E 11.6 SW 0.0 545.1
12:00 28.5 48.6 3.7 SSW 11.3 SSW 0.0 852.0
12:05 28.7 47.9 4.0 S 13.1 SSE 0.0 347.3
12:10 29.1 47.6 3.7 SSW 10.9 SW 0.0 697.2
12:15 29.7 46.4 3.0 S 10.2 SSW 0.0 1006.0
12:20 29.9 46.0 4.7 SSW 13.1 SSW 0.0 500.5
12:25 29.6 48.1 4.7 ESE 10.9 SE 0.0 982.0
12:30 28.4 51.3 4.4 ESE 9.2 ENE 0.0 404.3
12:35 28.1 53.0 4.1 SE 14.1 SE 0.0 580.4
12:40 28.7 51.3 2.0 ESE 10.6 SW 0.0 407.7
12:45 28.4 52.8 2.8 ESE 8.5 S 0.0 323.3
12:50 27.8 55.4 2.8 SE 7.8 ESE 0.0 348.1
12:55 27.5 56.4 3.0 ESE 10.9 ESE 0.0 280.6
13:00 26.9 58.6 2.9 S 8.5 S 0.0 251.4
13:05 26.8 58.3 2.0 NNE 6.4 ENE 0.0 169.0
13:10 26.8 58.5 4.4 NNE 10.9 ENE 0.0 204.7
13:15 26.5 59.8 4.4 E 12.7 NE 0.0 224.6
13:20 26.4 60.4 3.5 SSE 12.7 WSW 0.0 256.8
13:25 27.3 58.0 3.7 W 10.9 NNW 0.0 721.2
13:30 28.0 56.2 4.8 E 13.1 ESE 0.0 852.0
13:35 27.8 56.3 6.8 E 15.9 E 0.0 378.0
13:40 27.2 57.6 5.1 SW 15.9 SSW 0.0 230.4
13:45 26.5 60.2 5.8 ESE 12.7 E 0.0 146.1
13:50 26.4 61.3 2.7 ESE 8.5 SSW 0.0 139.9
13:55 26.4 61.5 1.5 E 3.9 ENE 0.0 147.1
14:00 26.5 61.2 2.8 SE 8.8 W 0.0 191.7
14:05 26.4 61.1 3.0 E 7.4 SE 0.0 551.1
14:10 27.1 58.8 4.9 ENE 10.2 ENE 0.0 651.9
14:15 27.5 57.2 3.5 SSW 13.4 ENE 0.0 467.7
14:20 26.9 58.3 6.5 E 13.1 ENE 0.0 164.5
14:25 26.8 58.8 3.6 ESE 7.8 ENE 0.0 305.6
14:30 27.2 57.2 4.8 ESE 13.1 ENE 0.0 756.0
14:35 27.2 56.3 6.4 ENE 15.2 ESE 0.0 463.0
14:40 26.6 58.7 6.9 E 16.2 E 0.0 140.2
14:45 26.2 60.7 3.7 E 10.9 E 0.0 155.4
14:50 26.0 61.3 2.3 E 7.1 E 0.0 424.2
14:55 26.4 60.6 4.6 SSW 19.1 W 0.0 371.5
15:00 26.5 60.4 3.1 SSE 9.9 SSW 0.0 456.8
15:05 26.3 60.9 4.1 WSW 10.2 E 0.0 325.8
15:10 25.7 62.7 3.8 NNW 13.8 SW 0.0 149.7
15:15 25.3 64.4 5.3 NW 11.3 N 0.0 127.3
15:20 25.0 65.8 4.1 N 12.0 N 0.0 167.7
15:25 25.4 64.6 3.3 SSW 10.6 SSW 0.0 346.5
15:30 25.7 62.5 4.6 WSW 12.4 SSW 0.0 275.0
15:35 26.0 62.2 4.9 ENE 12.4 ENE 0.0 556.5
15:40 26.2 61.7 4.4 E 13.1 ESE 0.0 484.2
15:45 26.4 60.4 1.8 ESE 4.9 S 0.0 460.6
15:50 26.5 60.8 6.0 SSW 14.5 SW 0.0 462.2
15:55 26.7 60.0 2.7 S 7.4 SW 0.0 411.5
16:00 27.3 57.8 1.8 ENE 6.0 N 0.0 374.7
16:05 26.4 61.7 5.1 ENE 9.5 E 0.0 242.9
16:10 25.9 64.0 2.9 SSE 9.9 S 0.0 197.6
16:15 25.8 64.3 2.2 WSW 6.4 S 0.0 128.3
16:20 25.4 65.4 2.0 N 5.6 ENE 0.0 225.1
16:25 25.9 64.1 1.7 WSW 4.6 NNW 0.0 199.7
16:30 25.9 64.0 2.3 NE 8.5 NW 0.0 142.4
16:35 25.3 65.8 4.6 N 8.5 NNE 0.0 107.0
16:40 24.9 66.7 3.9 WNW 8.1 NW 0.0 97.9
16:45 24.9 66.0 3.0 E 7.4 E 0.0 93.8
16:50 24.8 65.9 2.4 NNE 6.0 ESE 0.0 87.6
16:55 24.7 65.7 2.6 E 6.7 N 0.0 74.4
17:00 24.6 65.7 2.3 NNE 5.6 ENE 0.0 65.4
17:05 24.5 65.8 2.1 SSW 7.1 SSW 0.0 60.4
17:10 24.5 65.5 1.1 SSW 4.2 W 0.0 56.5
17:15 24.4 65.8 1.4 SE 4.2 E 0.0 54.0
17:20 24.3 66.1 2.0 ESE 4.6 ESE 0.0 57.7
17:25 24.2 66.0 2.3 ESE 7.1 E 0.0 54.0
17:30 24.2 66.1 2.3 ENE 6.4 NE 0.0 51.7
17:35 24.2 66.3 1.5 ENE 5.3 ENE 0.0 52.2
17:40 24.2 66.1 1.4 SW 5.3 WSW 0.0 53.2
17:45 24.2 66.1 1.3 NW 4.2 NW 0.0 65.7
17:50 24.2 66.0 0.9 N 2.8 NNW 0.0 39.1
17:55 24.1 66.3 0.6 NNE 2.1 ENE 0.0 23.8
18:00 23.9 67.0 1.0 NE 3.2 NE 0.0 22.5
18:05 23.8 67.5 0.5 N 2.1 N 0.0 19.1
18:10 23.6 68.5 1.1 N 2.8 N 0.0 15.1
18:15 23.4 69.1 0.2 N 1.4 N 0.0 8.2
18:20 23.1 70.3 0.1 NW 1.1 NW 0.0 3.4
18:25 22.8 71.2 0.5 ENE 1.8 ENE 0.0 0.4
18:30 22.5 72.1 1.5 ENE 3.5 ENE 0.0 0.0
18:35 22.3 73.3 2.3 ENE 3.2 NE 0.0 0.0
18:40 22.1 73.7 1.1 NE 2.5 NE 0.0 0.0
18:45 22.0 73.8 1.0 ENE 2.5 ENE 0.0 0.0
18:50 21.8 75.0 2.9 NE 4.6 NE 0.0 0.0
18:55 21.7 75.0 0.8 NNE 2.5 NE 0.0 0.0
19:00 21.5 75.8 1.9 ENE 3.2 ENE 0.0 0.0
19:05 21.3 76.3 1.3 N 2.5 ENE 0.0 0.0
19:10 21.2 76.9 0.6 NNW 2.5 NNW 0.0 0.0
19:15 21.2 76.9 0.6 NNE 2.1 N 0.0 0.0
19:20 20.9 77.7 2.1 ENE 4.6 ENE 0.0 0.0
19:25 20.9 77.7 1.9 ENE 3.5 ENE 0.0 0.0
19:30 20.7 78.6 2.5 ENE 4.2 NE 0.0 0.0
19:35 20.8 78.1 2.3 ENE 5.3 ENE 0.0 0.0
Máxima 29.9 90.9 6.9 E 19.1 W 0.0 1006.0
Mínima 18.3 45.5
Total 0.0